sensor_id;sensor_type;location;lat;lon;timestamp;temperature;humidity
1994;DHT22;998;49.906;10.908;2024-03-23T00:54:47;11.70;99.90
1994;DHT22;998;49.906;10.908;2024-03-23T00:57:13;11.70;99.90
1994;DHT22;998;49.906;10.908;2024-03-23T00:59:40;11.70;99.90
1994;DHT22;998;49.906;10.908;2024-03-23T01:02:06;11.70;99.90
1994;DHT22;998;49.906;10.908;2024-03-23T01:04:33;11.70;99.90
1994;DHT22;998;49.906;10.908;2024-03-23T01:06:59;11.80;99.90
1994;DHT22;998;49.906;10.908;2024-03-23T01:09:26;11.80;99.90
1994;DHT22;998;49.906;10.908;2024-03-23T01:11:53;11.80;99.90
1994;DHT22;998;49.906;10.908;2024-03-23T01:14:20;11.70;99.90
1994;DHT22;998;49.906;10.908;2024-03-23T01:16:46;11.80;99.90
1994;DHT22;998;49.906;10.908;2024-03-23T01:19:13;11.80;99.90
1994;DHT22;998;49.906;10.908;2024-03-23T01:21:39;11.80;99.90
1994;DHT22;998;49.906;10.908;2024-03-23T01:24:06;11.80;99.90
1994;DHT22;998;49.906;10.908;2024-03-23T01:26:32;11.80;99.90
1994;DHT22;998;49.906;10.908;2024-03-23T01:29:00;11.80;99.90
1994;DHT22;998;49.906;10.908;2024-03-23T01:31:26;11.80;99.90
1994;DHT22;998;49.906;10.908;2024-03-23T01:33:53;11.80;99.90
1994;DHT22;998;49.906;10.908;2024-03-23T01:36:19;11.80;99.90
1994;DHT22;998;49.906;10.908;2024-03-23T01:38:46;11.80;99.90
1994;DHT22;998;49.906;10.908;2024-03-23T01:41:12;11.80;99.90
1994;DHT22;998;49.906;10.908;2024-03-23T01:43:39;11.80;99.90
1994;DHT22;998;49.906;10.908;2024-03-23T01:46:08;11.80;99.90
1994;DHT22;998;49.906;10.908;2024-03-23T01:48:36;11.80;99.90
1994;DHT22;998;49.906;10.908;2024-03-23T01:51:03;11.80;99.90
1994;DHT22;998;49.906;10.908;2024-03-23T01:53:31;11.80;99.90
1994;DHT22;998;49.906;10.908;2024-03-23T01:55:57;11.80;99.90
1994;DHT22;998;49.906;10.908;2024-03-23T01:58:25;11.80;99.90
1994;DHT22;998;49.906;10.908;2024-03-23T02:00:51;11.80;99.90
1994;DHT22;998;49.906;10.908;2024-03-23T02:03:23;11.80;99.90
1994;DHT22;998;49.906;10.908;2024-03-23T02:05:50;11.80;99.90
1994;DHT22;998;49.906;10.908;2024-03-23T02:08:18;11.80;99.90
1994;DHT22;998;49.906;10.908;2024-03-23T02:10:46;11.70;99.90
1994;DHT22;998;49.906;10.908;2024-03-23T02:13:14;11.60;99.90
1994;DHT22;998;49.906;10.908;2024-03-23T02:15:41;11.60;99.90
1994;DHT22;998;49.906;10.908;2024-03-23T02:18:09;11.60;99.90
1994;DHT22;998;49.906;10.908;2024-03-23T02:20:37;11.60;99.90
1994;DHT22;998;49.906;10.908;2024-03-23T02:23:10;11.60;99.90
1994;DHT22;998;49.906;10.908;2024-03-23T02:25:38;11.60;99.90
1994;DHT22;998;49.906;10.908;2024-03-23T02:28:06;11.50;99.90
1994;DHT22;998;49.906;10.908;2024-03-23T02:30:33;11.50;99.90
1994;DHT22;998;49.906;10.908;2024-03-23T02:33:00;11.40;99.90
1994;DHT22;998;49.906;10.908;2024-03-23T02:35:26;11.40;99.90
1994;DHT22;998;49.906;10.908;2024-03-23T02:37:54;11.40;99.90
1994;DHT22;998;49.906;10.908;2024-03-23T02:40:23;11.40;99.90
1994;DHT22;998;49.906;10.908;2024-03-23T02:42:51;11.40;99.90
1994;DHT22;998;49.906;10.908;2024-03-23T02:45:17;11.30;99.90
1994;DHT22;998;49.906;10.908;2024-03-23T02:47:44;11.30;99.90
1994;DHT22;998;49.906;10.908;2024-03-23T02:50:10;11.30;99.90
1994;DHT22;998;49.906;10.908;2024-03-23T02:52:38;11.30;99.90
1994;DHT22;998;49.906;10.908;2024-03-23T02:55:04;11.30;99.90
1994;DHT22;998;49.906;10.908;2024-03-23T02:57:33;11.30;99.90
1994;DHT22;998;49.906;10.908;2024-03-23T03:00:00;11.40;99.90
1994;DHT22;998;49.906;10.908;2024-03-23T03:02:27;11.40;99.90
1994;DHT22;998;49.906;10.908;2024-03-23T03:04:53;11.40;99.90
1994;DHT22;998;49.906;10.908;2024-03-23T03:07:20;11.40;99.90
1994;DHT22;998;49.906;10.908;2024-03-23T03:09:46;11.40;99.90
1994;DHT22;998;49.906;10.908;2024-03-23T03:12:14;11.30;99.90
1994;DHT22;998;49.906;10.908;2024-03-23T03:14:41;11.40;99.90
1994;DHT22;998;49.906;10.908;2024-03-23T03:17:09;11.40;99.90
1994;DHT22;998;49.906;10.908;2024-03-23T03:19:35;11.30;99.90
1994;DHT22;998;49.906;10.908;2024-03-23T03:22:02;11.20;99.90
1994;DHT22;998;49.906;10.908;2024-03-23T03:24:30;11.30;99.90
1994;DHT22;998;49.906;10.908;2024-03-23T03:26:57;11.20;99.90
1994;DHT22;998;49.906;10.908;2024-03-23T03:29:24;11.20;99.90
1994;DHT22;998;49.906;10.908;2024-03-23T03:31:53;11.20;99.90
1994;DHT22;998;49.906;10.908;2024-03-23T03:34:19;11.20;99.90
1994;DHT22;998;49.906;10.908;2024-03-23T03:36:46;11.20;99.90
1994;DHT22;998;49.906;10.908;2024-03-23T03:39:13;11.20;99.90
1994;DHT22;998;49.906;10.908;2024-03-23T03:41:40;11.20;99.90
1994;DHT22;998;49.906;10.908;2024-03-23T03:44:06;11.10;99.90
1994;DHT22;998;49.906;10.908;2024-03-23T03:46:34;11.20;99.90
1994;DHT22;998;49.906;10.908;2024-03-23T03:49:01;11.10;99.90
1994;DHT22;998;49.906;10.908;2024-03-23T03:51:29;11.20;99.90
1994;DHT22;998;49.906;10.908;2024-03-23T03:53:55;11.20;99.90
1994;DHT22;998;49.906;10.908;2024-03-23T03:56:23;11.20;99.90
1994;DHT22;998;49.906;10.908;2024-03-23T03:58:50;11.20;99.90
1994;DHT22;998;49.906;10.908;2024-03-23T04:01:17;11.20;99.90
1994;DHT22;998;49.906;10.908;2024-03-23T04:03:43;11.20;99.90
1994;DHT22;998;49.906;10.908;2024-03-23T04:06:18;11.20;99.90
1994;DHT22;998;49.906;10.908;2024-03-23T04:08:44;11.20;99.90
1994;DHT22;998;49.906;10.908;2024-03-23T04:11:11;11.10;99.90
1994;DHT22;998;49.906;10.908;2024-03-23T04:13:38;11.00;99.90
1994;DHT22;998;49.906;10.908;2024-03-23T04:16:07;10.90;99.90
1994;DHT22;998;49.906;10.908;2024-03-23T04:18:34;10.90;99.90
1994;DHT22;998;49.906;10.908;2024-03-23T04:21:02;10.90;99.90
1994;DHT22;998;49.906;10.908;2024-03-23T04:23:30;10.90;99.90
1994;DHT22;998;49.906;10.908;2024-03-23T04:26:03;11.00;99.90
1994;DHT22;998;49.906;10.908;2024-03-23T04:28:30;11.00;99.90
1994;DHT22;998;49.906;10.908;2024-03-23T04:30:57;11.10;99.90
1994;DHT22;998;49.906;10.908;2024-03-23T04:33:23;11.00;99.90
1994;DHT22;998;49.906;10.908;2024-03-23T04:35:51;11.00;99.90
1994;DHT22;998;49.906;10.908;2024-03-23T04:38:17;11.00;99.90
1994;DHT22;998;49.906;10.908;2024-03-23T04:40:54;11.00;99.90
1994;DHT22;998;49.906;10.908;2024-03-23T04:43:21;11.00;99.90
1994;DHT22;998;49.906;10.908;2024-03-23T04:45:49;10.90;99.90
1994;DHT22;998;49.906;10.908;2024-03-23T04:48:15;10.90;99.90
1994;DHT22;998;49.906;10.908;2024-03-23T04:50:43;10.70;99.90
1994;DHT22;998;49.906;10.908;2024-03-23T04:53:10;10.80;99.90
1994;DHT22;998;49.906;10.908;2024-03-23T04:55:37;10.80;99.90
1994;DHT22;998;49.906;10.908;2024-03-23T04:58:06;11.90;99.90
1994;DHT22;998;49.906;10.908;2024-03-23T05:00:32;10.80;99.90
1994;DHT22;998;49.906;10.908;2024-03-23T05:03:00;10.80;99.90
1994;DHT22;998;49.906;10.908;2024-03-23T05:05:26;10.80;99.90
1994;DHT22;998;49.906;10.908;2024-03-23T05:07:53;10.80;99.90
1994;DHT22;998;49.906;10.908;2024-03-23T05:10:20;10.80;99.90
1994;DHT22;998;49.906;10.908;2024-03-23T05:12:47;10.80;99.90
1994;DHT22;998;49.906;10.908;2024-03-23T05:15:15;10.80;99.90
1994;DHT22;998;49.906;10.908;2024-03-23T05:17:42;10.70;99.90
1994;DHT22;998;49.906;10.908;2024-03-23T05:20:09;10.70;99.90
1994;DHT22;998;49.906;10.908;2024-03-23T05:22:38;10.70;99.90
1994;DHT22;998;49.906;10.908;2024-03-23T05:25:05;10.60;99.90
1994;DHT22;998;49.906;10.908;2024-03-23T05:27:33;10.60;99.90
1994;DHT22;998;49.906;10.908;2024-03-23T05:30:00;10.60;99.90
1994;DHT22;998;49.906;10.908;2024-03-23T05:32:28;10.60;99.90
1994;DHT22;998;49.906;10.908;2024-03-23T05:34:55;10.60;99.90
1994;DHT22;998;49.906;10.908;2024-03-23T05:37:22;10.60;99.90
1994;DHT22;998;49.906;10.908;2024-03-23T05:39:49;10.50;99.90
1994;DHT22;998;49.906;10.908;2024-03-23T05:42:17;10.50;99.90
1994;DHT22;998;49.906;10.908;2024-03-23T05:44:44;10.50;99.90
1994;DHT22;998;49.906;10.908;2024-03-23T05:47:12;10.50;99.90
1994;DHT22;998;49.906;10.908;2024-03-23T05:49:40;10.50;99.90
1994;DHT22;998;49.906;10.908;2024-03-23T05:52:08;10.50;99.90
1994;DHT22;998;49.906;10.908;2024-03-23T05:54:35;10.60;99.90
1994;DHT22;998;49.906;10.908;2024-03-23T05:57:02;10.60;99.90
1994;DHT22;998;49.906;10.908;2024-03-23T05:59:29;10.50;99.90
1994;DHT22;998;49.906;10.908;2024-03-23T06:01:57;10.50;99.90
1994;DHT22;998;49.906;10.908;2024-03-23T06:04:23;10.50;99.90
1994;DHT22;998;49.906;10.908;2024-03-23T06:06:52;10.50;99.90
1994;DHT22;998;49.906;10.908;2024-03-23T06:09:19;10.50;99.90
1994;DHT22;998;49.906;10.908;2024-03-23T06:11:46;10.50;99.90
1994;DHT22;998;49.906;10.908;2024-03-23T06:14:12;10.50;99.90
1994;DHT22;998;49.906;10.908;2024-03-23T06:16:40;10.60;99.90
1994;DHT22;998;49.906;10.908;2024-03-23T06:19:06;10.50;99.90
1994;DHT22;998;49.906;10.908;2024-03-23T06:21:33;10.60;99.90
1994;DHT22;998;49.906;10.908;2024-03-23T06:24:01;10.60;99.90
1994;DHT22;998;49.906;10.908;2024-03-23T06:26:28;10.60;99.90
1994;DHT22;998;49.906;10.908;2024-03-23T06:28:55;10.60;99.90
1994;DHT22;998;49.906;10.908;2024-03-23T06:31:22;10.60;99.90
1994;DHT22;998;49.906;10.908;2024-03-23T06:33:49;10.70;99.90
1994;DHT22;998;49.906;10.908;2024-03-23T06:36:16;10.60;99.90
1994;DHT22;998;49.906;10.908;2024-03-23T06:38:42;10.70;99.90
1994;DHT22;998;49.906;10.908;2024-03-23T06:41:11;10.70;99.90
1994;DHT22;998;49.906;10.908;2024-03-23T06:43:37;10.70;99.90
1994;DHT22;998;49.906;10.908;2024-03-23T06:46:05;10.70;99.90
1994;DHT22;998;49.906;10.908;2024-03-23T06:48:31;10.80;99.90
1994;DHT22;998;49.906;10.908;2024-03-23T06:50:59;10.90;99.90
1994;DHT22;998;49.906;10.908;2024-03-23T06:53:25;11.00;99.90
1994;DHT22;998;49.906;10.908;2024-03-23T06:55:53;11.10;99.90
1994;DHT22;998;49.906;10.908;2024-03-23T06:58:23;11.10;99.90
1994;DHT22;998;49.906;10.908;2024-03-23T07:00:51;11.20;99.90
1994;DHT22;998;49.906;10.908;2024-03-23T07:03:17;11.30;99.90
1994;DHT22;998;49.906;10.908;2024-03-23T07:05:45;11.30;99.90
1994;DHT22;998;49.906;10.908;2024-03-23T07:08:12;11.40;99.90
1994;DHT22;998;49.906;10.908;2024-03-23T07:10:44;11.40;99.90
1994;DHT22;998;49.906;10.908;2024-03-23T07:13:10;11.50;99.90
1994;DHT22;998;49.906;10.908;2024-03-23T07:15:39;11.50;99.90
1994;DHT22;998;49.906;10.908;2024-03-23T07:18:05;11.40;99.90
1994;DHT22;998;49.906;10.908;2024-03-23T07:20:33;11.40;99.90
1994;DHT22;998;49.906;10.908;2024-03-23T07:22:59;11.30;99.90
1994;DHT22;998;49.906;10.908;2024-03-23T07:25:26;11.20;99.90
1994;DHT22;998;49.906;10.908;2024-03-23T07:27:55;11.20;99.90
1994;DHT22;998;49.906;10.908;2024-03-23T07:30:22;11.10;99.90
1994;DHT22;998;49.906;10.908;2024-03-23T07:32:50;11.10;99.90
1994;DHT22;998;49.906;10.908;2024-03-23T07:35:17;11.00;99.90
1994;DHT22;998;49.906;10.908;2024-03-23T07:37:45;11.10;99.90
1994;DHT22;998;49.906;10.908;2024-03-23T07:40:13;11.10;99.90
1994;DHT22;998;49.906;10.908;2024-03-23T07:42:40;11.10;99.90
1994;DHT22;998;49.906;10.908;2024-03-23T07:45:08;11.00;99.90
1994;DHT22;998;49.906;10.908;2024-03-23T07:47:35;11.00;99.90
1994;DHT22;998;49.906;10.908;2024-03-23T07:50:05;10.90;99.90
1994;DHT22;998;49.906;10.908;2024-03-23T07:52:31;10.90;99.90
1994;DHT22;998;49.906;10.908;2024-03-23T07:54:59;10.90;99.90
1994;DHT22;998;49.906;10.908;2024-03-23T07:57:25;10.80;99.90
1994;DHT22;998;49.906;10.908;2024-03-23T07:59:52;10.70;99.90
1994;DHT22;998;49.906;10.908;2024-03-23T08:02:19;10.80;99.90
1994;DHT22;998;49.906;10.908;2024-03-23T08:04:46;10.70;99.90
1994;DHT22;998;49.906;10.908;2024-03-23T08:07:14;10.70;99.90
1994;DHT22;998;49.906;10.908;2024-03-23T08:09:41;10.70;99.90
1994;DHT22;998;49.906;10.908;2024-03-23T08:12:07;10.80;99.90
1994;DHT22;998;49.906;10.908;2024-03-23T08:14:35;10.70;99.90
1994;DHT22;998;49.906;10.908;2024-03-23T08:17:01;10.70;99.90
1994;DHT22;998;49.906;10.908;2024-03-23T08:19:28;10.70;99.90
1994;DHT22;998;49.906;10.908;2024-03-23T08:21:55;10.60;99.90
1994;DHT22;998;49.906;10.908;2024-03-23T08:24:23;10.00;99.90
1994;DHT22;998;49.906;10.908;2024-03-23T08:26:50;10.50;99.90
1994;DHT22;998;49.906;10.908;2024-03-23T08:29:17;10.50;99.90
1994;DHT22;998;49.906;10.908;2024-03-23T08:31:43;10.40;99.90
1994;DHT22;998;49.906;10.908;2024-03-23T08:34:11;10.30;99.90
1994;DHT22;998;49.906;10.908;2024-03-23T08:36:37;10.30;99.90
1994;DHT22;998;49.906;10.908;2024-03-23T08:39:04;10.30;99.90
1994;DHT22;998;49.906;10.908;2024-03-23T08:41:32;10.20;99.90
1994;DHT22;998;49.906;10.908;2024-03-23T08:43:59;10.10;99.90
1994;DHT22;998;49.906;10.908;2024-03-23T08:46:26;10.00;99.90
1994;DHT22;998;49.906;10.908;2024-03-23T08:48:53;9.70;99.90
1994;DHT22;998;49.906;10.908;2024-03-23T08:51:20;9.70;99.90
1994;DHT22;998;49.906;10.908;2024-03-23T08:53:47;9.70;99.90
1994;DHT22;998;49.906;10.908;2024-03-23T08:56:13;9.70;99.90
1994;DHT22;998;49.906;10.908;2024-03-23T08:58:43;9.70;99.90
1994;DHT22;998;49.906;10.908;2024-03-23T09:01:10;9.70;99.90
1994;DHT22;998;49.906;10.908;2024-03-23T09:03:39;9.70;99.90
1994;DHT22;998;49.906;10.908;2024-03-23T09:06:07;9.70;99.90
1994;DHT22;998;49.906;10.908;2024-03-23T09:08:35;9.70;99.90
1994;DHT22;998;49.906;10.908;2024-03-23T09:11:04;9.70;99.90
1994;DHT22;998;49.906;10.908;2024-03-23T09:13:33;10.80;99.90
1994;DHT22;998;49.906;10.908;2024-03-23T09:16:01;9.60;99.90
1994;DHT22;998;49.906;10.908;2024-03-23T09:18:31;9.60;99.90
1994;DHT22;998;49.906;10.908;2024-03-23T09:20:58;9.60;99.90
1994;DHT22;998;49.906;10.908;2024-03-23T09:23:25;9.50;99.90
1994;DHT22;998;49.906;10.908;2024-03-23T09:25:52;9.50;99.90
1994;DHT22;998;49.906;10.908;2024-03-23T09:28:18;9.50;99.90
1994;DHT22;998;49.906;10.908;2024-03-23T09:30:46;9.50;99.90
1994;DHT22;998;49.906;10.908;2024-03-23T09:33:13;9.50;99.90
1994;DHT22;998;49.906;10.908;2024-03-23T09:35:43;9.50;99.90
1994;DHT22;998;49.906;10.908;2024-03-23T09:38:10;9.50;99.90
1994;DHT22;998;49.906;10.908;2024-03-23T09:40:41;9.70;99.90
1994;DHT22;998;49.906;10.908;2024-03-23T09:43:08;9.60;99.90
1994;DHT22;998;49.906;10.908;2024-03-23T09:45:39;9.60;99.90
1994;DHT22;998;49.906;10.908;2024-03-23T09:48:07;9.70;99.90
1994;DHT22;998;49.906;10.908;2024-03-23T09:50:38;9.70;99.90
1994;DHT22;998;49.906;10.908;2024-03-23T09:53:05;9.70;99.90
1994;DHT22;998;49.906;10.908;2024-03-23T09:55:34;9.70;99.90
1994;DHT22;998;49.906;10.908;2024-03-23T09:58:01;9.70;99.90
1994;DHT22;998;49.906;10.908;2024-03-23T10:00:28;9.80;99.90
1994;DHT22;998;49.906;10.908;2024-03-23T10:02:55;9.80;99.90
1994;DHT22;998;49.906;10.908;2024-03-23T10:05:24;9.70;99.90
1994;DHT22;998;49.906;10.908;2024-03-23T10:07:51;9.70;99.90
1994;DHT22;998;49.906;10.908;2024-03-23T10:10:19;9.60;99.90
1994;DHT22;998;49.906;10.908;2024-03-23T10:12:48;9.60;99.90
1994;DHT22;998;49.906;10.908;2024-03-23T10:15:19;9.60;99.90
1994;DHT22;998;49.906;10.908;2024-03-23T10:17:45;9.70;99.90
1994;DHT22;998;49.906;10.908;2024-03-23T10:20:13;9.80;99.90
1994;DHT22;998;49.906;10.908;2024-03-23T10:22:44;9.90;99.90
1994;DHT22;998;49.906;10.908;2024-03-23T10:25:14;9.80;99.90
1994;DHT22;998;49.906;10.908;2024-03-23T10:27:40;9.80;99.90
1994;DHT22;998;49.906;10.908;2024-03-23T10:30:10;9.70;99.90
1994;DHT22;998;49.906;10.908;2024-03-23T10:32:37;9.70;99.90
1994;DHT22;998;49.906;10.908;2024-03-23T10:35:15;9.70;99.90
1994;DHT22;998;49.906;10.908;2024-03-23T10:37:41;9.90;99.90
1994;DHT22;998;49.906;10.908;2024-03-23T10:40:13;9.90;99.90
1994;DHT22;998;49.906;10.908;2024-03-23T10:42:39;10.00;99.90
1994;DHT22;998;49.906;10.908;2024-03-23T10:45:08;10.00;99.90
1994;DHT22;998;49.906;10.908;2024-03-23T10:47:35;10.00;99.90
1994;DHT22;998;49.906;10.908;2024-03-23T10:50:04;10.10;99.90
1994;DHT22;998;49.906;10.908;2024-03-23T10:52:31;10.10;99.90
1994;DHT22;998;49.906;10.908;2024-03-23T10:54:59;10.00;99.90
1994;DHT22;998;49.906;10.908;2024-03-23T10:57:33;10.00;99.90
1994;DHT22;998;49.906;10.908;2024-03-23T11:00:03;10.10;99.90
1994;DHT22;998;49.906;10.908;2024-03-23T11:02:30;10.10;99.90
1994;DHT22;998;49.906;10.908;2024-03-23T11:04:57;10.10;99.90
1994;DHT22;998;49.906;10.908;2024-03-23T11:07:30;10.20;99.90
1994;DHT22;998;49.906;10.908;2024-03-23T11:09:58;10.30;99.90
1994;DHT22;998;49.906;10.908;2024-03-23T11:12:30;10.40;99.90
1994;DHT22;998;49.906;10.908;2024-03-23T11:15:03;10.50;99.90
1994;DHT22;998;49.906;10.908;2024-03-23T11:17:30;10.50;99.90
1994;DHT22;998;49.906;10.908;2024-03-23T11:19:58;10.50;99.90
1994;DHT22;998;49.906;10.908;2024-03-23T11:22:44;10.30;99.90
1994;DHT22;998;49.906;10.908;2024-03-23T11:25:14;10.20;99.90
1994;DHT22;998;49.906;10.908;2024-03-23T11:27:42;10.10;99.90
1994;DHT22;998;49.906;10.908;2024-03-23T11:30:14;10.00;99.90
1994;DHT22;998;49.906;10.908;2024-03-23T11:32:40;10.10;99.90
1994;DHT22;998;49.906;10.908;2024-03-23T11:35:08;10.10;99.90
1994;DHT22;998;49.906;10.908;2024-03-23T11:37:36;10.20;99.90
1994;DHT22;998;49.906;10.908;2024-03-23T11:40:20;10.20;99.90
1994;DHT22;998;49.906;10.908;2024-03-23T11:42:55;10.30;99.90
1994;DHT22;998;49.906;10.908;2024-03-23T11:45:23;10.30;99.90
1994;DHT22;998;49.906;10.908;2024-03-23T11:48:05;10.60;99.90
1994;DHT22;998;49.906;10.908;2024-03-23T11:50:33;10.90;99.90
1994;DHT22;998;49.906;10.908;2024-03-23T11:53:13;10.90;99.90
1994;DHT22;998;49.906;10.908;2024-03-23T11:55:48;10.70;99.90
1994;DHT22;998;49.906;10.908;2024-03-23T11:58:16;10.70;99.90
1994;DHT22;998;49.906;10.908;2024-03-23T12:00:50;10.90;99.90
1994;DHT22;998;49.906;10.908;2024-03-23T12:03:17;11.10;99.90
1994;DHT22;998;49.906;10.908;2024-03-23T12:05:48;11.50;99.90
1994;DHT22;998;49.906;10.908;2024-03-23T12:08:19;11.20;99.90
1994;DHT22;998;49.906;10.908;2024-03-23T12:10:49;10.90;99.90
1994;DHT22;998;49.906;10.908;2024-03-23T12:13:21;10.70;99.90
1994;DHT22;998;49.906;10.908;2024-03-23T12:15:50;10.60;99.90
1994;DHT22;998;49.906;10.908;2024-03-23T12:18:17;10.60;99.90
1994;DHT22;998;49.906;10.908;2024-03-23T12:20:50;11.00;99.90
1994;DHT22;998;49.906;10.908;2024-03-23T12:23:16;11.60;99.90
1994;DHT22;998;49.906;10.908;2024-03-23T12:25:44;12.00;99.90
1994;DHT22;998;49.906;10.908;2024-03-23T12:28:10;12.00;99.90
1994;DHT22;998;49.906;10.908;2024-03-23T12:30:40;11.60;99.40
1994;DHT22;998;49.906;10.908;2024-03-23T12:33:06;11.60;98.60
1994;DHT22;998;49.906;10.908;2024-03-23T12:35:34;12.20;99.50
1994;DHT22;998;49.906;10.908;2024-03-23T12:38:00;12.40;98.30
1994;DHT22;998;49.906;10.908;2024-03-23T12:40:28;12.50;99.30
1994;DHT22;998;49.906;10.908;2024-03-23T12:42:54;12.60;94.60
1994;DHT22;998;49.906;10.908;2024-03-23T12:45:22;12.10;94.30
1994;DHT22;998;49.906;10.908;2024-03-23T12:47:49;11.80;94.30
1994;DHT22;998;49.906;10.908;2024-03-23T12:50:18;12.10;95.80
1994;DHT22;998;49.906;10.908;2024-03-23T12:52:44;12.50;95.40
1994;DHT22;998;49.906;10.908;2024-03-23T12:55:12;12.50;95.20
1994;DHT22;998;49.906;10.908;2024-03-23T12:57:38;12.40;93.50
1994;DHT22;998;49.906;10.908;2024-03-23T13:00:07;12.20;93.20
1994;DHT22;998;49.906;10.908;2024-03-23T13:02:37;11.90;93.70
1994;DHT22;998;49.906;10.908;2024-03-23T13:05:07;11.80;94.40
1994;DHT22;998;49.906;10.908;2024-03-23T13:07:34;11.60;95.70
1994;DHT22;998;49.906;10.908;2024-03-23T13:10:04;11.40;94.30
1994;DHT22;998;49.906;10.908;2024-03-23T13:12:30;11.40;95.70
1994;DHT22;998;49.906;10.908;2024-03-23T13:14:58;11.40;96.10
1994;DHT22;998;49.906;10.908;2024-03-23T13:17:25;11.30;95.80
1994;DHT22;998;49.906;10.908;2024-03-23T13:19:54;11.20;96.40
1994;DHT22;998;49.906;10.908;2024-03-23T13:22:22;11.10;97.00
1994;DHT22;998;49.906;10.908;2024-03-23T13:24:50;11.10;96.50
1994;DHT22;998;49.906;10.908;2024-03-23T13:27:16;11.10;96.60
1994;DHT22;998;49.906;10.908;2024-03-23T13:29:44;11.00;97.10
1994;DHT22;998;49.906;10.908;2024-03-23T13:32:12;10.90;97.40
1994;DHT22;998;49.906;10.908;2024-03-23T13:34:39;10.90;97.20
1994;DHT22;998;49.906;10.908;2024-03-23T13:37:06;10.80;96.60
1994;DHT22;998;49.906;10.908;2024-03-23T13:39:35;10.70;98.00
1994;DHT22;998;49.906;10.908;2024-03-23T13:42:01;10.50;99.90
1994;DHT22;998;49.906;10.908;2024-03-23T13:44:29;10.50;99.90
1994;DHT22;998;49.906;10.908;2024-03-23T13:46:55;10.70;99.90
1994;DHT22;998;49.906;10.908;2024-03-23T13:49:27;10.70;99.90
1994;DHT22;998;49.906;10.908;2024-03-23T13:51:54;10.80;99.90
1994;DHT22;998;49.906;10.908;2024-03-23T13:54:23;10.70;99.90
1994;DHT22;998;49.906;10.908;2024-03-23T13:56:52;10.60;99.90
1994;DHT22;998;49.906;10.908;2024-03-23T13:59:20;10.30;99.90
1994;DHT22;998;49.906;10.908;2024-03-23T14:01:47;10.20;99.90
1994;DHT22;998;49.906;10.908;2024-03-23T14:04:14;10.10;99.90
1994;DHT22;998;49.906;10.908;2024-03-23T14:06:42;10.20;99.90
1994;DHT22;998;49.906;10.908;2024-03-23T14:09:11;10.60;99.90
1994;DHT22;998;49.906;10.908;2024-03-23T14:11:37;10.90;99.90
1994;DHT22;998;49.906;10.908;2024-03-23T14:14:07;11.20;99.90
1994;DHT22;998;49.906;10.908;2024-03-23T14:16:34;11.50;99.90
1994;DHT22;998;49.906;10.908;2024-03-23T14:19:01;11.60;99.90
1994;DHT22;998;49.906;10.908;2024-03-23T14:21:27;11.80;99.90
1994;DHT22;998;49.906;10.908;2024-03-23T14:23:55;12.10;99.90
1994;DHT22;998;49.906;10.908;2024-03-23T14:26:21;12.10;99.90
1994;DHT22;998;49.906;10.908;2024-03-23T14:28:49;12.20;99.90
1994;DHT22;998;49.906;10.908;2024-03-23T14:31:17;12.30;99.90
1994;DHT22;998;49.906;10.908;2024-03-23T14:33:45;12.20;99.90
1994;DHT22;998;49.906;10.908;2024-03-23T14:36:12;12.10;99.90
1994;DHT22;998;49.906;10.908;2024-03-23T14:38:39;12.00;99.90
1994;DHT22;998;49.906;10.908;2024-03-23T14:41:06;11.90;99.90
1994;DHT22;998;49.906;10.908;2024-03-23T14:43:33;11.90;99.90
1994;DHT22;998;49.906;10.908;2024-03-23T14:46:10;11.80;99.90
1994;DHT22;998;49.906;10.908;2024-03-23T14:48:40;11.70;99.90
1994;DHT22;998;49.906;10.908;2024-03-23T14:51:07;11.60;99.90
1994;DHT22;998;49.906;10.908;2024-03-23T14:53:35;11.50;99.90
1994;DHT22;998;49.906;10.908;2024-03-23T14:56:02;11.30;99.90
1994;DHT22;998;49.906;10.908;2024-03-23T14:58:30;11.30;99.90
1994;DHT22;998;49.906;10.908;2024-03-23T15:01:00;11.30;99.90
1994;DHT22;998;49.906;10.908;2024-03-23T15:03:28;11.50;99.90
1994;DHT22;998;49.906;10.908;2024-03-23T15:05:56;11.50;99.90
1994;DHT22;998;49.906;10.908;2024-03-23T15:08:24;11.40;99.90
1994;DHT22;998;49.906;10.908;2024-03-23T15:10:50;11.50;99.90
1994;DHT22;998;49.906;10.908;2024-03-23T15:13:18;11.60;99.90
1994;DHT22;998;49.906;10.908;2024-03-23T15:15:44;11.70;99.90
1994;DHT22;998;49.906;10.908;2024-03-23T15:18:14;11.70;99.90
1994;DHT22;998;49.906;10.908;2024-03-23T15:20:40;11.60;99.90
1994;DHT22;998;49.906;10.908;2024-03-23T15:23:09;11.60;99.30
1994;DHT22;998;49.906;10.908;2024-03-23T15:25:36;11.50;99.90
1994;DHT22;998;49.906;10.908;2024-03-23T15:28:03;11.40;99.00
1994;DHT22;998;49.906;10.908;2024-03-23T15:30:30;11.30;98.50
1994;DHT22;998;49.906;10.908;2024-03-23T15:32:57;11.20;98.00
1994;DHT22;998;49.906;10.908;2024-03-23T15:35:23;11.10;98.30
1994;DHT22;998;49.906;10.908;2024-03-23T15:37:51;11.00;98.40
1994;DHT22;998;49.906;10.908;2024-03-23T15:40:19;11.00;98.60
1994;DHT22;998;49.906;10.908;2024-03-23T15:42:46;10.80;98.50
1994;DHT22;998;49.906;10.908;2024-03-23T15:45:12;10.80;98.90
1994;DHT22;998;49.906;10.908;2024-03-23T15:47:40;10.90;98.80
1994;DHT22;998;49.906;10.908;2024-03-23T15:50:07;10.90;98.80
1994;DHT22;998;49.906;10.908;2024-03-23T15:52:35;10.80;98.70
1994;DHT22;998;49.906;10.908;2024-03-23T15:55:02;10.70;98.60
1994;DHT22;998;49.906;10.908;2024-03-23T15:57:33;10.70;99.80
1994;DHT22;998;49.906;10.908;2024-03-23T16:00:00;10.30;99.90
1994;DHT22;998;49.906;10.908;2024-03-23T16:02:28;10.00;99.90
1994;DHT22;998;49.906;10.908;2024-03-23T16:04:54;9.60;99.90
1994;DHT22;998;49.906;10.908;2024-03-23T16:07:22;9.40;99.90
1994;DHT22;998;49.906;10.908;2024-03-23T16:09:49;9.20;99.90
1994;DHT22;998;49.906;10.908;2024-03-23T16:12:16;9.20;99.90
1994;DHT22;998;49.906;10.908;2024-03-23T16:14:44;9.00;99.90
1994;DHT22;998;49.906;10.908;2024-03-23T16:17:12;8.90;99.90
1994;DHT22;998;49.906;10.908;2024-03-23T16:19:38;8.80;99.90
1994;DHT22;998;49.906;10.908;2024-03-23T16:22:05;8.80;99.90
1994;DHT22;998;49.906;10.908;2024-03-23T16:24:31;8.90;99.90
1994;DHT22;998;49.906;10.908;2024-03-23T16:26:59;9.10;99.90
1994;DHT22;998;49.906;10.908;2024-03-23T16:29:26;9.10;99.90
1994;DHT22;998;49.906;10.908;2024-03-23T16:31:54;9.10;99.90
1994;DHT22;998;49.906;10.908;2024-03-23T16:34:21;9.20;99.90
1994;DHT22;998;49.906;10.908;2024-03-23T16:36:48;9.20;99.90
1994;DHT22;998;49.906;10.908;2024-03-23T16:39:15;9.20;99.90
1994;DHT22;998;49.906;10.908;2024-03-23T16:41:42;9.10;99.90
1994;DHT22;998;49.906;10.908;2024-03-23T16:44:09;9.20;99.90
1994;DHT22;998;49.906;10.908;2024-03-23T16:46:36;9.20;99.90
1994;DHT22;998;49.906;10.908;2024-03-23T16:49:04;9.20;99.90
1994;DHT22;998;49.906;10.908;2024-03-23T16:51:31;9.20;99.90
1994;DHT22;998;49.906;10.908;2024-03-23T16:53:58;9.30;99.90
1994;DHT22;998;49.906;10.908;2024-03-23T16:56:26;9.30;99.90
1994;DHT22;998;49.906;10.908;2024-03-23T16:58:52;10.20;99.90
1994;DHT22;998;49.906;10.908;2024-03-23T17:01:20;9.20;99.90